Time;durP1;ratioP1;P1;durP2;ratioP2;P2;SDS_P1;SDS_P2;PMS_P1;PMS_P2;Temp;Humidity;BMP_temperature;BMP_pressure;BME280_temperature;BME280_humidity;BME280_pressure;Samples;Min_cycle;Max_cycle;Signal;HPM_P1;HPM_P2
2022/06/14 00:01:24;;;;;;;4.00;2.17;;;13.70;99.90;;;;;;5036775;28;20577;-77
2022/06/14 00:03:50;;;;;;;7.10;2.47;;;13.70;99.90;;;;;;5036463;28;20330;-79
2022/06/14 00:06:26;;;;;;;5.47;2.00;;;13.70;99.90;;;;;;5054304;28;20210;-79
2022/06/14 00:08:52;;;;;;;5.27;1.97;;;13.70;99.90;;;;;;5057410;28;20832;-79
2022/06/14 00:11:21;;;;;;;4.20;2.00;;;13.60;99.90;;;;;;5058109;28;20587;-78
2022/06/14 00:13:49;;;;;;;4.60;2.20;;;13.60;99.90;;;;;;5057482;28;20430;-78
2022/06/14 00:16:16;;;;;;;3.97;1.90;;;13.60;99.90;;;;;;5058400;28;20418;-78
2022/06/14 00:18:42;;;;;;;5.33;2.30;;;13.50;99.90;;;;;;5058096;28;20778;-78
2022/06/14 00:21:08;;;;;;;5.27;2.67;;;13.50;99.90;;;;;;5058287;28;20410;-78
2022/06/14 00:23:34;;;;;;;5.17;2.53;;;13.40;99.90;;;;;;5058577;28;20204;-79
2022/06/14 00:26:00;;;;;;;7.33;2.17;;;13.50;99.90;;;;;;5057660;28;20216;-78
2022/06/14 00:28:28;;;;;;;4.97;2.30;;;13.40;99.90;;;;;;5058028;28;20495;-77
2022/06/14 00:30:57;;;;;;;7.97;2.60;;;13.50;99.90;;;;;;5058358;28;20441;-78
2022/06/14 00:33:23;;;;;;;6.40;2.33;;;13.40;99.90;;;;;;5058731;28;20441;-78
2022/06/14 00:35:57;;;;;;;4.83;2.37;;;13.30;99.90;;;;;;5057143;28;20937;-78
2022/06/14 00:38:22;;;;;;;5.27;2.03;;;13.30;99.90;;;;;;5040822;28;20798;-79
2022/06/14 00:40:55;;;;;;;5.50;3.00;;;13.30;99.90;;;;;;5040502;28;20418;-78
2022/06/14 00:43:21;;;;;;;6.73;2.10;;;13.30;99.90;;;;;;5058405;28;20682;-78
2022/06/14 00:45:48;;;;;;;7.97;2.53;;;13.30;99.90;;;;;;5039578;28;20434;-77
2022/06/14 00:48:30;;;;;;;4.60;2.40;;;13.30;99.90;;;;;;5057874;28;20982;-78
2022/06/14 00:51:18;;;;;;;3.00;1.90;;;13.40;99.90;;;;;;5058054;28;20432;-78
2022/06/14 00:53:46;;;;;;;4.67;2.10;;;13.40;99.90;;;;;;5058128;28;20428;-79
2022/06/14 00:56:38;;;;;;;9.27;2.40;;;13.40;99.90;;;;;;5057701;28;20510;-78
2022/06/14 00:59:10;;;;;;;6.83;2.47;;;13.30;99.90;;;;;;5053598;28;20422;-78
2022/06/14 01:01:38;;;;;;;6.43;2.13;;;13.30;99.90;;;;;;5057517;28;20924;-78
2022/06/14 01:04:21;;;;;;;6.93;2.53;;;13.30;99.90;;;;;;5057324;28;20483;-79
2022/06/14 01:06:50;;;;;;;4.33;1.90;;;13.30;99.90;;;;;;5056966;28;20484;-78
2022/06/14 01:09:22;;;;;;;3.83;1.93;;;13.20;99.90;;;;;;5056844;28;20552;-77
2022/06/14 01:12:10;;;;;;;6.63;2.00;;;13.30;99.90;;;;;;5039418;28;20432;-77
2022/06/14 01:15:02;;;;;;;7.47;2.17;;;13.30;99.90;;;;;;5056261;28;20418;-78
2022/06/14 01:17:30;;;;;;;5.60;2.07;;;13.30;99.90;;;;;;5030204;28;20969;-77
2022/06/14 01:19:57;;;;;;;4.53;2.03;;;13.30;99.90;;;;;;5038477;28;20426;-78
2022/06/14 01:22:24;;;;;;;3.47;2.20;;;13.30;99.90;;;;;;5056793;28;20526;-77
2022/06/14 01:24:50;;;;;;;6.50;2.17;;;13.20;99.90;;;;;;5056378;28;20417;-78
2022/06/14 01:27:18;;;;;;;6.00;2.27;;;13.20;99.90;;;;;;5055769;28;20812;-77
2022/06/14 01:29:55;;;;;;;5.30;2.20;;;13.10;99.90;;;;;;5054869;28;20579;-76
2022/06/14 01:32:21;;;;;;;6.10;2.20;;;13.10;99.90;;;;;;5054932;28;20432;-77
2022/06/14 01:34:55;;;;;;;4.10;1.80;;;13.10;99.90;;;;;;5054607;28;20406;-77
2022/06/14 01:37:22;;;;;;;6.13;2.47;;;13.10;99.90;;;;;;5054690;28;20966;-77
2022/06/14 01:39:48;;;;;;;4.40;1.97;;;13.10;99.90;;;;;;5054663;28;20414;-77
2022/06/14 01:42:23;;;;;;;4.80;2.30;;;13.20;99.90;;;;;;5054620;28;21052;-77
2022/06/14 01:45:00;;;;;;;4.07;2.00;;;13.20;99.90;;;;;;5054591;28;20177;-77
2022/06/14 01:47:44;;;;;;;6.07;2.50;;;13.20;99.90;;;;;;5053981;28;20782;-77
2022/06/14 01:53:41;;;;;;;5.50;2.10;;;13.20;99.90;;;;;;5053670;28;20483;-77
2022/06/14 01:56:17;;;;;;;4.87;2.20;;;13.10;99.90;;;;;;5053720;28;20932;-77
2022/06/14 01:58:52;;;;;;;4.30;1.90;;;13.00;99.90;;;;;;5054713;28;20407;-77
2022/06/14 02:01:23;;;;;;;6.07;1.90;;;13.00;99.90;;;;;;5055005;28;21004;-77
2022/06/14 02:07:05;;;;;;;5.00;2.13;;;12.90;99.90;;;;;;5055003;28;20400;-79
2022/06/14 02:09:40;;;;;;;3.77;2.10;;;12.80;99.90;;;;;;5054242;28;20822;-77
2022/06/14 02:12:08;;;;;;;4.83;2.00;;;12.80;99.90;;;;;;5036728;28;20430;-77
2022/06/14 02:14:58;;;;;;;5.93;2.00;;;12.80;99.90;;;;;;5054775;28;20410;-78
2022/06/14 02:17:35;;;;;;;4.93;2.20;;;12.70;99.90;;;;;;5054375;28;20422;-77
2022/06/14 02:20:06;;;;;;;6.37;2.43;;;12.70;99.90;;;;;;5036488;28;20426;-77
2022/06/14 02:22:45;;;;;;;4.63;2.83;;;12.70;99.90;;;;;;5054294;28;20571;-79
2022/06/14 02:25:15;;;;;;;4.17;1.90;;;12.60;99.90;;;;;;5054263;28;20492;-78
2022/06/14 02:27:46;;;;;;;6.40;2.50;;;12.60;99.90;;;;;;5053901;28;20399;-76
2022/06/14 02:30:22;;;;;;;5.20;2.50;;;12.60;99.90;;;;;;5036222;28;20424;-78
2022/06/14 02:33:12;;;;;;;3.10;1.73;;;12.60;99.90;;;;;;5054025;28;20417;-77
2022/06/14 02:35:41;;;;;;;5.53;2.43;;;12.50;99.90;;;;;;5053357;28;20493;-78
2022/06/14 02:38:15;;;;;;;7.53;2.00;;;12.40;99.90;;;;;;5054142;28;20442;-77
2022/06/14 02:41:01;;;;;;;6.97;2.40;;;12.50;99.90;;;;;;5036095;28;20425;-77
2022/06/14 02:43:34;;;;;;;4.43;2.20;;;12.40;99.90;;;;;;5036758;28;20933;-77
2022/06/14 02:46:11;;;;;;;5.93;2.70;;;12.40;99.90;;;;;;5053425;28;20410;-77
2022/06/14 02:48:46;;;;;;;7.03;2.73;;;12.40;99.90;;;;;;5053837;28;20444;-77
2022/06/14 02:51:29;;;;;;;4.50;2.07;;;12.30;99.90;;;;;;5053699;28;20455;-77
2022/06/14 02:54:01;;;;;;;4.90;2.23;;;12.30;99.90;;;;;;5054103;28;20430;-77
2022/06/14 02:56:34;;;;;;;4.27;2.90;;;12.30;99.90;;;;;;5053688;28;20462;-77
2022/06/14 02:59:23;;;;;;;4.13;2.43;;;12.30;99.90;;;;;;5038812;28;20430;-77
2022/06/14 03:02:15;;;;;;;4.80;2.60;;;12.30;99.90;;;;;;5058302;28;20418;-77
2022/06/14 03:04:46;;;;;;;3.60;2.20;;;12.20;99.90;;;;;;5079977;23;20498;-76
2022/06/14 03:07:28;;;;;;;6.20;2.10;;;12.20;99.90;;;;;;5045706;28;20441;-76
2022/06/14 03:09:55;;;;;;;7.33;2.60;;;12.20;99.90;;;;;;5054567;28;20469;-76
2022/06/14 03:12:38;;;;;;;3.40;2.10;;;12.10;99.90;;;;;;5054451;28;20437;-76
2022/06/14 03:15:38;;;;;;;7.70;2.57;;;12.10;99.90;;;;;;5054165;28;20449;-76
2022/06/14 03:18:22;;;;;;;4.70;2.07;;;12.10;99.90;;;;;;5054215;28;20458;-76
2022/06/14 03:20:48;;;;;;;7.23;2.47;;;12.10;99.90;;;;;;5054382;28;20414;-76
2022/06/14 03:23:32;;;;;;;6.10;2.10;;;12.10;99.90;;;;;;5054440;28;20430;-75
2022/06/14 03:26:14;;;;;;;3.50;2.20;;;;;;;;;;5053945;28;20202;-77
2022/06/14 03:28:44;;;;;;;5.07;2.23;;;12.00;99.90;;;;;;5037929;28;20500;-76
2022/06/14 03:31:53;;;;;;;6.50;2.63;;;12.00;99.90;;;;;;5054610;28;20833;-77
2022/06/14 03:34:25;;;;;;;5.60;2.80;;;12.00;99.90;;;;;;5031756;28;20441;-76
2022/06/14 03:36:53;;;;;;;7.60;2.30;;;11.90;99.90;;;;;;5054138;28;20526;-76
2022/06/14 03:39:24;;;;;;;6.37;3.93;;;11.90;99.90;;;;;;5054950;28;20421;-77
2022/06/14 03:41:53;;;;;;;4.73;2.23;;;11.80;99.90;;;;;;5054251;28;20414;-77
2022/06/14 03:44:21;;;;;;;5.17;2.10;;;11.90;99.90;;;;;;5054234;28;20520;-77
2022/06/14 03:47:03;;;;;;;7.10;2.73;;;11.90;99.90;;;;;;5053588;28;20466;-77
2022/06/14 03:49:29;;;;;;;7.37;3.00;;;12.00;99.90;;;;;;5054213;28;20457;-76
2022/06/14 03:52:32;;;;;;;8.10;2.47;;;11.90;99.90;;;;;;5053931;28;21014;-77
2022/06/14 03:55:07;;;;;;;9.43;2.70;;;11.90;99.90;;;;;;5054000;28;20927;-76
2022/06/14 03:58:03;;;;;;;10.17;2.77;;;11.90;99.90;;;;;;5053484;28;20516;-77
2022/06/14 04:00:48;;;;;;;9.03;2.50;;;11.90;99.90;;;;;;5054039;28;20518;-76
2022/06/14 04:03:20;;;;;;;3.60;2.17;;;11.90;99.90;;;;;;5053609;28;20414;-77
2022/06/14 04:06:01;;;;;;;3.43;2.53;;;11.90;99.90;;;;;;5053260;28;20423;-77
2022/06/14 04:08:45;;;;;;;9.63;2.87;;;11.90;99.90;;;;;;5053194;28;20655;-76
2022/06/14 04:11:14;;;;;;;7.33;3.30;;;11.90;99.90;;;;;;5053584;28;20422;-77
2022/06/14 04:13:40;;;;;;;5.20;2.47;;;12.00;99.90;;;;;;5053595;28;20444;-76
2022/06/14 04:16:32;;;;;;;3.63;2.27;;;12.00;99.90;;;;;;5053058;28;20442;-77
2022/06/14 04:19:10;;;;;;;5.40;2.70;;;12.10;99.90;;;;;;5053380;28;20188;-76
2022/06/14 04:21:54;;;;;;;4.90;2.70;;;12.20;99.90;;;;;;5053732;28;20422;-76
2022/06/14 04:24:20;;;;;;;6.80;2.60;;;12.20;99.90;;;;;;5053235;28;20429;-76
2022/06/14 04:26:48;;;;;;;7.43;2.90;;;12.30;99.90;;;;;;5053251;28;20438;-77
2022/06/14 04:29:22;;;;;;;7.63;2.87;;;12.40;99.90;;;;;;5053284;28;20253;-76
2022/06/14 04:32:17;;;;;;;9.90;2.60;;;12.40;99.90;;;;;;5053390;28;20425;-76
2022/06/14 04:34:46;;;;;;;5.63;2.67;;;12.50;99.90;;;;;;5043134;28;20432;-76
2022/06/14 04:37:22;;;;;;;7.80;2.87;;;12.50;99.90;;;;;;5052746;28;20525;-77
2022/06/14 04:40:16;;;;;;;4.03;2.70;;;12.60;99.90;;;;;;5053322;28;20433;-77
2022/06/14 04:43:08;;;;;;;7.87;2.90;;;12.70;99.90;;;;;;5047630;28;20873;-76
2022/06/14 04:45:56;;;;;;;4.27;2.67;;;12.70;99.90;;;;;;5051715;28;20423;-77
2022/06/14 04:48:51;;;;;;;12.03;3.50;;;12.80;99.90;;;;;;5053187;28;20492;-76
2022/06/14 04:51:52;;;;;;;5.50;3.10;;;12.90;99.90;;;;;;5052663;28;20430;-76
2022/06/14 04:54:35;;;;;;;6.33;3.27;;;13.00;99.90;;;;;;4996347;28;20419;-76
2022/06/14 04:57:18;;;;;;;5.30;2.97;;;13.10;99.90;;;;;;5064151;28;20445;-76
2022/06/14 04:59:57;;;;;;;5.63;3.40;;;13.10;99.90;;;;;;5052884;28;20487;-76
2022/06/14 05:02:33;;;;;;;6.00;3.50;;;13.30;99.90;;;;;;5052199;28;20461;-77
2022/06/14 05:05:07;;;;;;;7.93;3.70;;;13.30;99.90;;;;;;5052490;28;20437;-77
2022/06/14 05:07:45;;;;;;;8.57;4.20;;;13.30;99.90;;;;;;5052526;28;20830;-77
2022/06/14 05:10:18;;;;;;;5.90;3.97;;;13.30;99.90;;;;;;5052599;28;20469;-76
2022/06/14 05:13:07;;;;;;;8.60;3.40;;;13.40;99.90;;;;;;5052518;28;20447;-76
2022/06/14 05:15:38;;;;;;;6.90;3.80;;;13.50;99.90;;;;;;5041749;28;20955;-76
2022/06/14 05:18:10;;;;;;;7.90;3.97;;;13.50;99.90;;;;;;5052292;28;20414;-76
2022/06/14 05:20:50;;;;;;;5.97;3.30;;;13.50;99.90;;;;;;5052549;28;20947;-77
2022/06/14 05:23:47;;;;;;;12.37;3.87;;;13.50;99.90;;;;;;5052803;28;20553;-77
2022/06/14 05:26:37;;;;;;;7.20;4.13;;;13.60;99.90;;;;;;5052317;28;20442;-77
2022/06/14 05:29:09;;;;;;;7.03;3.73;;;13.80;99.90;;;;;;5051905;28;20469;-76
2022/06/14 05:32:09;;;;;;;13.00;4.90;;;13.80;99.90;;;;;;5052514;28;20929;-77
2022/06/14 05:34:48;;;;;;;8.10;4.57;;;13.90;99.90;;;;;;5041861;28;20422;-76
2022/06/14 05:37:36;;;;;;;9.13;3.80;;;14.00;99.90;;;;;;5052364;28;20452;-76
2022/06/14 05:40:31;;;;;;;6.70;3.60;;;14.10;99.90;;;;;;5052231;28;20422;-76
2022/06/14 05:43:17;;;;;;;6.27;3.53;;;14.10;99.90;;;;;;5053228;28;20789;-77
2022/06/14 05:45:49;;;;;;;11.50;4.10;;;14.20;99.90;;;;;;5051314;28;20414;-76
2022/06/14 05:48:30;;;;;;;5.60;3.27;;;14.30;99.90;;;;;;5051228;28;20500;-76
2022/06/14 05:50:58;;;;;;;8.30;4.10;;;14.40;99.90;;;;;;5051011;28;20514;-76
2022/06/14 05:53:30;;;;;;;8.93;4.40;;;14.40;99.90;;;;;;5050998;28;20773;-76
2022/06/14 05:56:02;;;;;;;8.00;4.33;;;14.60;99.90;;;;;;5051015;28;20434;-76
2022/06/14 05:58:42;;;;;;;11.80;4.73;;;14.60;99.90;;;;;;5050780;28;20436;-76
2022/06/14 06:01:32;;;;;;;6.60;3.70;;;14.80;99.90;;;;;;5051044;28;20505;-76
2022/06/14 06:04:13;;;;;;;7.33;3.97;;;14.90;99.90;;;;;;5050103;28;20453;-76
2022/06/14 06:06:45;;;;;;;7.93;4.67;;;15.00;99.90;;;;;;5050716;28;20452;-76
2022/06/14 06:09:22;;;;;;;9.10;3.70;;;15.10;99.90;;;;;;5050992;28;20489;-89
2022/06/14 06:12:08;;;;;;;5.73;3.70;;;15.20;99.90;;;;;;5051567;28;20794;-76
2022/06/14 06:14:36;;;;;;;10.00;4.17;;;15.30;99.90;;;;;;5051146;28;20739;-78
2022/06/14 06:17:22;;;;;;;7.90;3.90;;;15.40;99.90;;;;;;5050970;28;20525;-77
2022/06/14 06:19:48;;;;;;;10.20;4.60;;;15.50;99.90;;;;;;5051118;28;21121;-77
2022/06/14 06:22:27;;;;;;;9.80;3.60;;;15.70;99.90;;;;;;5050654;28;20422;-76
2022/06/14 06:25:00;;;;;;;7.07;3.77;;;15.80;99.90;;;;;;5050459;28;20183;-76
2022/06/14 06:27:32;;;;;;;8.50;4.80;;;15.90;99.90;;;;;;5050816;28;20452;-76
2022/06/14 06:30:17;;;;;;;6.17;3.60;;;15.90;99.90;;;;;;5050637;28;20466;-76
2022/06/14 06:32:44;;;;;;;8.97;4.57;;;16.00;99.90;;;;;;5050716;28;20810;-79
2022/06/14 06:35:11;;;;;;;7.70;3.90;;;15.90;99.90;;;;;;5051872;28;20434;-79
2022/06/14 06:37:49;;;;;;;7.40;3.83;;;16.00;99.90;;;;;;5052440;28;20503;-81
2022/06/14 06:40:23;;;;;;;6.93;3.57;;;16.00;99.90;;;;;;5051788;28;20952;-83
2022/06/14 06:42:58;;;;;;;8.00;4.27;;;16.10;99.90;;;;;;5052367;28;20932;-82
2022/06/14 06:45:35;;;;;;;10.50;4.33;;;16.20;99.90;;;;;;5052325;28;20430;-81
2022/06/14 06:48:13;;;;;;;8.70;5.00;;;16.20;99.90;;;;;;5051744;28;20437;-82
2022/06/14 06:51:05;;;;;;;8.40;4.40;;;16.30;99.90;;;;;;5052005;28;20974;-82
2022/06/14 06:53:40;;;;;;;8.10;3.50;;;16.40;99.90;;;;;;5052038;28;20426;-82
2022/06/14 06:56:12;;;;;;;7.70;3.67;;;;;;;;;;5051494;28;20968;-81
2022/06/14 06:58:43;;;;;;;6.83;3.67;;;16.70;99.90;;;;;;5052062;28;20418;-82
2022/06/14 07:01:43;;;;;;;7.50;3.67;;;16.70;99.90;;;;;;5051983;28;20857;-82
2022/06/14 07:04:19;;;;;;;9.70;4.00;;;16.80;99.90;;;;;;5050620;28;20529;-80
2022/06/14 07:06:55;;;;;;;7.20;3.97;;;17.00;99.90;;;;;;5050880;28;20441;-81
2022/06/14 07:10:02;;;;;;;9.40;3.73;;;17.10;99.90;;;;;;5050773;28;20464;-82
2022/06/14 07:12:37;;;;;;;5.07;3.43;;;17.20;99.90;;;;;;5047954;28;20517;-82
2022/06/14 07:15:12;;;;;;;6.07;3.57;;;17.20;99.90;;;;;;5050734;28;20413;-80
2022/06/14 07:17:50;;;;;;;5.53;3.67;;;17.30;99.90;;;;;;5049733;28;20448;-81
2022/06/14 07:20:28;;;;;;;7.57;4.03;;;17.30;99.90;;;;;;5050605;28;20425;-79
2022/06/14 07:23:01;;;;;;;6.50;4.13;;;17.30;99.90;;;;;;5051558;28;20430;-81
2022/06/14 07:25:36;;;;;;;8.90;4.13;;;17.40;99.90;;;;;;5051772;28;20782;-81
2022/06/14 07:28:08;;;;;;;8.43;4.17;;;17.50;99.90;;;;;;5051678;28;20432;-81
2022/06/14 07:31:08;;;;;;;9.63;4.40;;;17.60;99.90;;;;;;5051630;28;20568;-81
2022/06/14 07:33:35;;;;;;;9.43;4.57;;;17.80;99.90;;;;;;5046199;28;20423;-80
2022/06/14 07:36:24;;;;;;;9.53;4.17;;;17.80;99.90;;;;;;5048593;28;20832;-81
2022/06/14 07:39:18;;;;;;;6.90;4.30;;;17.90;99.90;;;;;;5031967;28;20431;-80
2022/06/14 07:42:07;;;;;;;5.17;3.40;;;18.00;99.90;;;;;;5031340;28;20506;-80
2022/06/14 07:45:00;;;;;;;6.70;3.33;;;18.20;99.90;;;;;;4997029;28;20478;-80
2022/06/14 07:47:40;;;;;;;5.40;3.50;;;18.30;99.90;;;;;;5035607;28;20487;-79
2022/06/14 07:50:31;;;;;;;7.77;3.53;;;18.40;99.90;;;;;;5038689;28;20472;-79
2022/06/14 07:52:59;;;;;;;7.60;4.67;;;18.50;99.90;;;;;;5019764;28;20430;-78
2022/06/14 07:55:27;;;;;;;7.60;4.60;;;18.30;99.90;;;;;;5033386;28;20423;-76
2022/06/14 07:58:03;;;;;;;5.83;3.83;;;18.40;99.90;;;;;;5032891;28;20443;-76
2022/06/14 08:03:47;;;;;;;6.33;3.50;;;18.80;99.90;;;;;;5034151;28;20848;-79
2022/06/14 08:06:36;;;;;;;12.57;3.07;;;19.00;99.90;;;;;;5033289;28;20450;-79
2022/06/14 08:09:20;;;;;;;5.70;2.77;;;19.20;99.90;;;;;;5033054;28;20494;-79
2022/06/14 08:11:51;;;;;;;9.40;4.80;;;19.40;99.90;;;;;;5032921;28;20431;-79
2022/06/14 08:14:49;;;;;;;7.50;2.90;;;20.20;99.90;;;;;;5033159;28;20843;-79
2022/06/14 08:17:35;;;;;;;7.00;2.97;;;21.30;99.90;;;;;;5015124;28;20451;-79
2022/06/14 08:20:26;;;;;;;10.30;4.10;;;22.50;99.90;;;;;;5032895;28;20502;-78
2022/06/14 08:22:57;;;;;;;5.50;2.33;;;23.50;99.90;;;;;;5033242;28;20427;-78
2022/06/14 08:25:27;;;;;;;7.80;3.20;;;24.50;96.80;;;;;;5032795;28;20930;-78
2022/06/14 08:28:01;;;;;;;18.63;5.40;;;25.20;93.20;;;;;;5032816;28;20450;-80
2022/06/14 08:31:07;;;;;;;13.00;4.20;;;26.10;92.40;;;;;;5032685;28;20437;-81
2022/06/14 08:33:56;;;;;;;11.13;4.33;;;26.90;84.80;;;;;;5028998;28;20950;-81
2022/06/14 08:36:43;;;;;;;5.50;3.17;;;27.40;82.50;;;;;;5036709;28;20449;-82
2022/06/14 08:39:16;;;;;;;10.57;3.47;;;28.30;75.30;;;;;;5037907;28;20461;-82
2022/06/14 08:41:58;;;;;;;7.73;3.70;;;28.50;70.30;;;;;;5038665;28;20534;-77
2022/06/14 08:44:41;;;;;;;7.70;3.53;;;28.70;67.70;;;;;;5039342;28;20434;-78
2022/06/14 08:47:32;;;;;;;5.50;3.00;;;29.00;62.20;;;;;;5040095;28;20459;-78
2022/06/14 08:50:40;;;;;;;10.57;2.80;;;29.80;62.70;;;;;;5052768;28;20497;-77
2022/06/14 08:53:33;;;;;;;4.40;2.30;;;30.20;56.70;;;;;;5042761;28;20501;-80
2022/06/14 08:56:02;;;;;;;7.27;3.43;;;31.00;57.30;;;;;;5053570;28;20503;-83
2022/06/14 08:58:46;;;;;;;8.20;2.93;;;31.50;53.30;;;;;;5057718;28;20414;-77
2022/06/14 09:01:12;;;;;;;6.30;3.17;;;32.20;53.80;;;;;;5049253;28;20506;-76
2022/06/14 09:04:01;;;;;;;8.57;2.97;;;32.90;50.10;;;;;;5051795;28;20774;-76
2022/06/14 09:06:38;;;;;;;6.80;2.87;;;33.70;48.30;;;;;;5043235;28;20438;-76
2022/06/14 09:09:36;;;;;;;20.33;4.10;;;34.50;45.60;;;;;;5051759;28;20838;-76
2022/06/14 09:12:24;;;;;;;5.63;2.90;;;35.00;43.30;;;;;;5051611;28;20471;-76
2022/06/14 09:14:58;;;;;;;6.53;2.47;;;34.90;40.60;;;;;;5051893;28;20406;-76
2022/06/14 09:17:39;;;;;;;5.57;2.83;;;34.80;40.30;;;;;;5051137;28;20487;-76
2022/06/14 09:20:20;;;;;;;6.00;3.10;;;34.90;38.90;;;;;;5051512;28;20418;-77
2022/06/14 09:23:24;;;;;;;3.53;2.33;;;35.40;37.80;;;;;;5051378;28;20428;-77
2022/06/14 09:26:17;;;;;;;8.97;2.70;;;35.80;38.90;;;;;;5051363;28;20414;-77
2022/06/14 09:29:07;;;;;;;5.10;3.27;;;35.50;38.40;;;;;;5052126;28;20830;-77
2022/06/14 09:31:49;;;;;;;6.30;3.40;;;35.50;39.20;;;;;;5052748;28;20472;-77
2022/06/14 09:34:52;;;;;;;12.57;4.80;;;35.30;36.80;;;;;;5052689;28;20476;-78
2022/06/14 09:37:36;;;;;;;3.17;2.17;;;35.90;39.00;;;;;;5052440;28;20438;-78
2022/06/14 09:40:39;;;;;;;6.47;3.50;;;36.70;38.30;;;;;;5052109;28;20429;-76
2022/06/14 09:43:55;;;;;;;33.93;11.10;;;37.50;37.00;;;;;;5053351;28;20870;-77
2022/06/14 09:46:30;;;;;;;10.73;4.53;;;38.20;36.70;;;;;;5046841;28;20457;-77
2022/06/14 09:49:11;;;;;;;4.87;2.57;;;38.80;35.00;;;;;;5052414;28;20518;-77
2022/06/14 09:52:01;;;;;;;5.07;2.30;;;39.10;32.00;;;;;;5052322;28;20921;-76
2022/06/14 09:55:08;;;;;;;7.03;2.17;;;39.30;32.10;;;;;;5053684;28;20841;-77
2022/06/14 09:58:04;;;;;;;4.20;2.60;;;39.60;29.60;;;;;;5054911;28;20442;-83
2022/06/14 10:01:09;;;;;;;6.80;2.63;;;38.80;29.80;;;;;;5051389;28;20794;-82
2022/06/14 10:03:43;;;;;;;7.70;2.20;;;38.30;31.00;;;;;;5034582;28;20514;-83
2022/06/14 10:06:37;;;;;;;6.63;2.10;;;38.40;30.00;;;;;;5050970;28;20441;-83
2022/06/14 10:09:26;;;;;;;4.60;2.37;;;38.70;30.70;;;;;;5051125;28;20477;-83
2022/06/14 10:12:22;;;;;;;5.10;2.20;;;39.10;30.40;;;;;;5005150;28;20475;-83
2022/06/14 10:15:01;;;;;;;5.70;2.20;;;39.90;30.00;;;;;;5051407;28;20422;-83
2022/06/14 10:18:08;;;;;;;6.47;2.37;;;40.00;30.20;;;;;;5031310;28;20488;-83
2022/06/14 10:20:52;;;;;;;4.23;2.03;;;40.20;30.00;;;;;;5070554;22;20846;-83
2022/06/14 10:23:47;;;;;;;8.13;2.80;;;39.90;30.10;;;;;;5042269;28;20406;-83
2022/06/14 10:29:41;;;;;;;4.70;2.43;;;38.50;29.60;;;;;;5039842;28;20826;-81
2022/06/14 10:32:21;;;;;;;6.00;3.30;;;37.70;30.60;;;;;;5041674;28;20454;-83
2022/06/14 10:35:16;;;;;;;8.50;2.50;;;37.70;30.30;;;;;;5020235;28;20420;-83
2022/06/14 10:37:47;;;;;;;6.00;2.40;;;37.50;30.20;;;;;;4968255;28;20505;-83
2022/06/14 10:40:35;;;;;;;9.17;2.90;;;37.40;31.10;;;;;;5038584;28;21001;-80
2022/06/14 10:43:00;;;;;;;6.10;2.50;;;36.80;30.40;;;;;;5040164;28;20407;-82
2022/06/14 10:45:46;;;;;;;5.23;2.40;;;36.70;31.20;;;;;;5025219;28;20450;-81
2022/06/14 10:48:35;;;;;;;6.60;2.80;;;36.30;31.50;;;;;;5012563;28;20165;-80
2022/06/14 10:51:21;;;;;;;5.70;2.53;;;35.80;31.20;;;;;;5012314;28;20482;-80
2022/06/14 10:54:16;;;;;;;5.50;2.30;;;35.00;31.10;;;;;;5012001;28;20455;-80
2022/06/14 10:57:16;;;;;;;7.40;2.83;;;35.00;32.00;;;;;;4992640;28;20977;-82
2022/06/14 10:59:44;;;;;;;6.30;2.80;;;35.00;31.30;;;;;;5012144;28;20528;-81
2022/06/14 11:02:28;;;;;;;5.10;2.90;;;34.80;31.20;;;;;;5012183;28;20930;-81
2022/06/14 11:05:13;;;;;;;6.20;2.33;;;33.90;30.80;;;;;;5011878;28;20412;-82
2022/06/14 11:08:06;;;;;;;8.03;2.60;;;32.70;33.40;;;;;;5010951;28;20428;-79
2022/06/14 11:10:35;;;;;;;4.03;2.10;;;31.80;35.50;;;;;;5014849;28;20472;-83
2022/06/14 11:13:19;;;;;;;4.50;2.20;;;31.40;34.80;;;;;;5014224;28;20416;-81
2022/06/14 11:15:49;;;;;;;5.20;2.20;;;30.70;34.60;;;;;;5030009;28;20414;-82
2022/06/14 11:19:14;;;;;;;4.30;2.37;;;30.10;35.00;;;;;;5034880;28;20438;-81
2022/06/14 11:21:46;;;;;;;5.37;3.13;;;29.30;35.80;;;;;;4956887;29;20410;-81
2022/06/14 11:24:25;;;;;;;7.00;3.47;;;28.20;38.40;;;;;;5037162;28;20399;-82
2022/06/14 11:27:03;;;;;;;7.53;3.63;;;27.60;40.30;;;;;;5038280;28;20937;-82
2022/06/14 11:29:32;;;;;;;6.50;3.20;;;27.20;40.50;;;;;;5037121;28;20843;-82
2022/06/14 11:32:08;;;;;;;11.87;3.50;;;26.60;41.20;;;;;;5033781;28;20449;-83
2022/06/14 11:34:59;;;;;;;5.80;3.47;;;26.10;41.70;;;;;;5038408;28;20407;-83
2022/06/14 11:37:27;;;;;;;5.60;2.37;;;25.80;43.00;;;;;;5036417;28;20480;-83
2022/06/14 11:40:10;;;;;;;7.13;2.60;;;25.60;44.60;;;;;;5037287;28;20966;-83
2022/06/14 11:43:01;;;;;;;5.57;2.53;;;25.40;45.20;;;;;;5036260;28;20431;-81
2022/06/14 11:45:29;;;;;;;6.83;3.93;;;25.20;46.30;;;;;;5037821;28;20407;-81
2022/06/14 11:48:05;;;;;;;6.90;3.10;;;24.80;45.30;;;;;;5038197;28;20423;-81
2022/06/14 11:50:59;;;;;;;6.23;3.23;;;24.90;45.90;;;;;;5038436;28;20973;-80
2022/06/14 11:53:27;;;;;;;5.50;3.30;;;25.00;46.60;;;;;;5036478;28;20647;-80
2022/06/14 11:56:02;;;;;;;12.10;3.90;;;25.20;46.90;;;;;;5035964;28;20424;-81
2022/06/14 11:58:57;;;;;;;7.00;3.37;;;25.50;46.10;;;;;;5036973;28;20410;-84
2022/06/14 12:01:45;;;;;;;6.70;3.53;;;26.10;45.40;;;;;;5036664;28;20617;-83
2022/06/14 12:04:43;;;;;;;5.50;2.97;;;26.40;44.60;;;;;;5038303;28;20402;-84
2022/06/14 12:07:44;;;;;;;5.60;2.50;;;26.00;44.20;;;;;;5038050;28;20400;-85
2022/06/14 12:10:34;;;;;;;5.50;3.20;;;25.70;45.40;;;;;;5014017;28;20481;-85
2022/06/14 12:13:08;;;;;;;3.83;2.33;;;25.40;44.40;;;;;;5037076;28;20426;-86
2022/06/14 12:15:39;;;;;;;5.30;3.17;;;25.40;46.40;;;;;;5035370;28;20452;-84
2022/06/14 12:18:09;;;;;;;4.40;2.67;;;25.30;46.00;;;;;;5035483;28;20427;-84
2022/06/14 12:20:47;;;;;;;5.23;2.73;;;25.40;46.60;;;;;;5034656;28;20463;-84
2022/06/14 12:23:45;;;;;;;6.33;2.97;;;25.50;47.00;;;;;;5035886;28;20776;-82
2022/06/14 12:26:36;;;;;;;10.10;3.23;;;25.60;45.90;;;;;;5035787;28;20434;-83
2022/06/14 12:29:19;;;;;;;5.83;2.93;;;25.70;46.30;;;;;;5035911;28;20451;-84
2022/06/14 12:32:19;;;;;;;4.33;2.77;;;25.70;43.50;;;;;;5033535;28;20419;-81
2022/06/14 12:35:02;;;;;;;6.73;2.70;;;25.60;44.10;;;;;;5034854;28;20458;-82
2022/06/14 12:37:40;;;;;;;6.03;3.00;;;25.60;46.10;;;;;;5036487;28;20410;-81
2022/06/14 12:40:19;;;;;;;5.80;3.53;;;25.40;46.40;;;;;;5034107;28;20848;-81
2022/06/14 12:42:51;;;;;;;6.10;2.80;;;25.40;46.90;;;;;;5036737;28;20790;-81
2022/06/14 12:45:41;;;;;;;6.10;2.80;;;25.50;47.00;;;;;;5035356;28;20416;-81
2022/06/14 12:48:12;;;;;;;5.43;2.80;;;25.60;47.30;;;;;;5035999;28;20402;-81
2022/06/14 12:50:49;;;;;;;10.90;3.50;;;25.80;46.80;;;;;;5035439;28;20443;-83
2022/06/14 12:53:35;;;;;;;8.13;3.00;;;26.00;47.30;;;;;;5035318;28;20445;-82
2022/06/14 12:56:21;;;;;;;7.17;2.57;;;25.80;45.90;;;;;;5035522;28;20523;-81
2022/06/14 12:59:12;;;;;;;6.90;3.07;;;26.00;46.30;;;;;;5033820;28;20407;-80
2022/06/14 13:01:48;;;;;;;5.20;2.43;;;26.00;46.00;;;;;;5033250;28;20426;-81
2022/06/14 13:04:19;;;;;;;7.93;2.80;;;26.10;45.80;;;;;;5035816;28;20411;-81
2022/06/14 13:07:08;;;;;;;5.93;2.50;;;26.00;45.80;;;;;;5035349;28;20438;-81
2022/06/14 13:09:34;;;;;;;6.80;3.60;;;26.00;44.30;;;;;;5035744;28;20495;-80
2022/06/14 13:12:46;;;;;;;5.37;2.40;;;26.00;46.20;;;;;;5035269;28;20415;-80
2022/06/14 13:15:28;;;;;;;3.53;2.30;;;26.10;47.80;;;;;;5034731;28;20176;-80
2022/06/14 13:18:16;;;;;;;6.23;3.00;;;26.20;43.00;;;;;;5035175;28;20399;-81
2022/06/14 13:20:57;;;;;;;4.97;2.50;;;26.70;43.70;;;;;;5036053;28;20966;-81
2022/06/14 13:23:31;;;;;;;5.93;3.20;;;27.10;43.40;;;;;;5034501;28;20419;-80
2022/06/14 13:26:00;;;;;;;3.60;2.53;;;27.90;43.70;;;;;;5035155;28;20811;-82
2022/06/14 13:28:55;;;;;;;4.27;2.20;;;29.10;41.80;;;;;;5035494;28;20496;-81
2022/06/14 13:31:48;;;;;;;4.90;2.40;;;30.10;41.40;;;;;;5033409;28;20422;-80
2022/06/14 13:34:23;;;;;;;7.00;2.30;;;29.80;41.30;;;;;;5034208;28;20396;-81
2022/06/14 13:37:02;;;;;;;4.67;2.63;;;29.70;41.40;;;;;;5032378;28;20411;-80
2022/06/14 13:39:37;;;;;;;5.33;2.90;;;29.40;40.30;;;;;;5013324;28;20435;-80
2022/06/14 13:42:20;;;;;;;6.47;2.97;;;29.10;41.50;;;;;;5013837;28;20511;-81
2022/06/14 13:44:56;;;;;;;3.90;2.17;;;28.90;39.90;;;;;;5012252;28;20419;-81
2022/06/14 13:47:31;;;;;;;5.90;2.93;;;28.80;39.50;;;;;;5012165;28;20408;-81
2022/06/14 13:50:13;;;;;;;8.83;2.60;;;28.40;39.30;;;;;;5013682;28;20982;-80
2022/06/14 13:52:55;;;;;;;3.73;2.33;;;28.10;40.60;;;;;;5012347;28;20451;-82
2022/06/14 13:55:30;;;;;;;3.50;2.73;;;27.90;42.40;;;;;;5012844;28;20952;-80
2022/06/14 13:57:58;;;;;;;5.30;2.40;;;27.70;42.80;;;;;;5013288;28;20408;-81
2022/06/14 14:01:13;;;;;;;4.53;2.87;;;27.70;42.40;;;;;;5013924;28;20812;-81
2022/06/14 14:04:03;;;;;;;5.20;2.70;;;27.80;43.00;;;;;;5000558;28;20424;-81
2022/06/14 14:06:31;;;;;;;5.30;2.60;;;27.50;42.30;;;;;;5012095;28;20880;-81